Time;durP1;ratioP1;P1;durP2;ratioP2;P2;SDS_P1;SDS_P2;PMS_P1;PMS_P2;Temp;Humidity;BMP_temperature;BMP_pressure;BME280_temperature;BME280_humidity;BME280_pressure;Samples;Min_cycle;Max_cycle;Signal;HPM_P1;HPM_P2
2024/01/28 00:00:00;;;;;;;5.90;2.78;;;;;;;4.51;43.02;102956.53;4951205;28;20157;-76
2024/01/28 00:02:38;;;;;;;5.65;2.50;;;;;;;4.51;43.24;102956.53;4950824;28;20717;-74
2024/01/28 00:05:07;;;;;;;6.88;2.70;;;;;;;4.51;43.10;102959.25;4948981;28;20069;-76
2024/01/28 00:07:35;;;;;;;5.63;2.63;;;;;;;4.48;43.23;102949.34;4949879;28;20546;-76
2024/01/28 00:10:03;;;;;;;7.38;2.50;;;;;;;4.48;43.03;102952.06;4948015;28;20058;-76
2024/01/28 00:12:31;;;;;;;5.93;2.60;;;;;;;4.48;43.09;102943.03;4948374;28;20459;-76
2024/01/28 00:15:04;;;;;;;7.13;3.20;;;;;;;4.49;42.65;102940.28;4948640;28;20051;-75
2024/01/28 00:17:33;;;;;;;7.20;2.90;;;;;;;4.47;42.83;102944.00;4954117;28;20051;-75
2024/01/28 00:20:01;;;;;;;8.20;3.00;;;;;;;4.46;43.07;102940.41;4948647;28;20470;-76
2024/01/28 00:22:29;;;;;;;5.32;2.53;;;;;;;4.45;42.89;102935.91;4948497;28;20063;-75
2024/01/28 00:24:57;;;;;;;6.22;2.50;;;;;;;4.43;42.96;102935.06;4946416;28;20102;-76
2024/01/28 00:27:25;;;;;;;6.70;3.05;;;;;;;4.43;42.85;102937.78;4946454;28;20050;-76
2024/01/28 00:29:53;;;;;;;6.50;3.22;;;;;;;4.39;42.78;102922.50;4965028;28;20062;-75
2024/01/28 00:32:22;;;;;;;6.57;3.08;;;;;;;4.40;42.66;102916.16;4947371;28;20127;-76
2024/01/28 00:34:50;;;;;;;5.32;2.90;;;;;;;4.36;42.73;102914.47;4943472;28;20051;-75
2024/01/28 00:37:19;;;;;;;5.90;2.90;;;;;;;4.35;42.77;102915.41;4946107;28;20134;-76
2024/01/28 00:39:47;;;;;;;4.90;2.83;;;;;;;4.34;42.96;102905.50;4951236;28;20043;-76
2024/01/28 00:42:16;;;;;;;7.95;3.10;;;;;;;4.33;42.95;102901.00;4946224;28;20122;-75
2024/01/28 00:44:44;;;;;;;5.50;2.58;;;;;;;4.32;42.76;102907.34;4947476;28;20158;-75
2024/01/28 00:47:12;;;;;;;5.82;2.78;;;;;;;4.32;42.88;102903.75;4944633;28;20410;-75
2024/01/28 00:49:41;;;;;;;5.97;2.67;;;;;;;4.33;43.15;102897.41;4947874;28;20062;-75
2024/01/28 00:52:09;;;;;;;6.82;2.42;;;;;;;4.32;43.03;102898.34;4948040;28;20062;-75
2024/01/28 00:54:37;;;;;;;5.35;2.47;;;;;;;4.31;43.12;102894.72;4943646;29;20486;-75
2024/01/28 00:57:06;;;;;;;4.53;2.42;;;;;;;4.32;43.09;102895.63;4942172;28;20098;-76
2024/01/28 00:59:34;;;;;;;4.55;2.45;;;;;;;4.31;42.77;102893.84;4947794;28;20050;-75
2024/01/28 01:02:02;;;;;;;6.70;2.47;;;;;;;4.31;42.99;102891.13;4944809;28;20047;-75
2024/01/28 01:04:31;;;;;;;6.53;2.70;;;;;;;4.31;43.02;102891.13;4952000;28;20386;-74
2024/01/28 01:07:01;;;;;;;6.97;2.53;;;;;;;4.32;42.85;102892.91;4973456;28;20147;-75
2024/01/28 01:09:29;;;;;;;5.20;2.63;;;;;;;4.30;42.84;102892.09;4949028;28;20109;-75
2024/01/28 01:11:57;;;;;;;6.65;2.40;;;;;;;4.29;42.75;102888.50;4967106;28;20118;-75
2024/01/28 01:14:25;;;;;;;6.00;2.40;;;;;;;4.29;42.88;102884.91;4948983;28;20126;-76
2024/01/28 01:16:53;;;;;;;6.30;2.70;;;;;;;4.27;42.93;102884.03;4965268;28;20049;-76
2024/01/28 01:19:21;;;;;;;5.68;3.30;;;;;;;4.26;42.87;102874.13;4950251;29;20490;-76
2024/01/28 01:21:50;;;;;;;7.13;2.97;;;;;;;4.25;42.69;102884.06;4949939;28;20049;-77
2024/01/28 01:24:20;;;;;;;6.22;2.60;;;;;;;4.24;42.68;102882.28;4948730;28;20053;-76
2024/01/28 01:26:48;;;;;;;4.97;2.67;;;;;;;4.22;42.67;102873.34;4950327;28;20058;-77
2024/01/28 01:29:16;;;;;;;6.60;2.70;;;;;;;4.21;42.71;102868.84;4968692;28;20047;-76
2024/01/28 01:31:44;;;;;;;5.40;2.20;;;;;;;4.19;42.78;102861.69;4951795;28;20137;-77
2024/01/28 01:34:12;;;;;;;7.40;2.78;;;;;;;4.18;42.96;102859.91;4951164;28;20043;-76
2024/01/28 01:36:43;;;;;;;6.43;2.65;;;;;;;4.17;42.92;102864.44;4954247;28;20474;-76
2024/01/28 01:39:12;;;;;;;4.65;2.40;;;;;;;4.14;42.98;102862.69;4946476;29;20049;-76
2024/01/28 01:41:41;;;;;;;6.63;2.70;;;;;;;4.15;43.08;102875.31;4951777;29;20059;-77
2024/01/28 01:44:09;;;;;;;5.57;2.50;;;;;;;4.13;43.11;102858.25;4952198;28;20106;-76
2024/01/28 01:46:38;;;;;;;4.55;2.33;;;;;;;4.12;42.98;102856.47;4953248;29;20463;-75
2024/01/28 01:49:06;;;;;;;5.35;2.42;;;;;;;4.13;43.18;102857.34;4950584;28;20521;-76
2024/01/28 01:51:35;;;;;;;6.47;2.42;;;;;;;4.12;43.16;102856.47;4950121;29;20691;-76
2024/01/28 01:54:03;;;;;;;5.70;2.33;;;;;;;4.12;43.09;102851.03;4952161;28;20071;-75
2024/01/28 01:56:34;;;;;;;8.05;2.70;;;;;;;4.12;43.05;102852.84;4951445;29;20040;-75
2024/01/28 01:59:04;;;;;;;4.88;2.40;;;;;;;4.12;43.23;102853.75;4953003;29;20044;-76
2024/01/28 02:01:32;;;;;;;4.60;2.25;;;;;;;4.11;43.26;102862.81;4953165;28;20574;-76
2024/01/28 02:04:00;;;;;;;7.20;2.70;;;;;;;4.10;43.05;102852.91;4969566;28;20036;-76
2024/01/28 02:06:28;;;;;;;5.45;2.35;;;;;;;4.11;43.18;102851.06;4955198;28;20043;-76
2024/01/28 02:08:57;;;;;;;8.82;2.50;;;;;;;4.10;43.18;102849.28;4962100;28;20098;-76
2024/01/28 02:11:25;;;;;;;6.35;2.58;;;;;;;4.09;43.16;102852.94;4954954;28;20073;-76
2024/01/28 02:13:53;;;;;;;5.57;2.50;;;;;;;4.09;43.20;102856.53;4954897;28;20047;-76
2024/01/28 02:16:25;;;;;;;4.85;2.28;;;;;;;4.10;43.04;102847.47;4954042;29;20130;-76
2024/01/28 02:18:53;;;;;;;5.63;2.30;;;;;;;4.07;43.31;102847.56;4954636;28;20682;-76
2024/01/28 02:21:21;;;;;;;5.28;2.28;;;;;;;4.09;43.15;102836.69;4955760;28;20770;-76
2024/01/28 02:23:51;;;;;;;7.03;2.50;;;;;;;4.11;43.04;102837.53;4943454;29;20047;-76
2024/01/28 02:26:19;;;;;;;5.72;2.17;;;;;;;4.08;43.05;102830.38;4953221;28;20065;-76
2024/01/28 02:28:46;;;;;;;4.75;2.47;;;;;;;4.08;43.21;102826.78;4955593;28;20106;-75
2024/01/28 02:31:14;;;;;;;5.07;2.42;;;;;;;4.07;43.09;102825.88;4948418;29;20065;-76
2024/01/28 02:33:42;;;;;;;5.30;2.50;;;;;;;4.06;43.08;102824.09;4954468;28;20151;-75
2024/01/28 02:36:10;;;;;;;5.13;2.28;;;;;;;4.06;43.13;102824.09;4952697;28;20043;-76
2024/01/28 02:38:38;;;;;;;4.68;2.15;;;;;;;4.06;43.14;102818.69;4954365;28;20058;-76
2024/01/28 02:41:08;;;;;;;5.43;2.40;;;;;;;4.07;43.04;102811.44;4954423;28;20082;-76
2024/01/28 02:43:36;;;;;;;7.72;2.70;;;;;;;4.05;43.09;102806.09;4956236;28;20148;-76
2024/01/28 02:46:05;;;;;;;5.10;2.50;;;;;;;4.04;42.87;102807.03;4969314;28;20090;-76
2024/01/28 02:48:33;;;;;;;6.25;2.25;;;;;;;4.03;43.02;102807.94;4954298;28;20533;-76
2024/01/28 02:51:01;;;;;;;6.70;2.40;;;;;;;4.02;43.03;102797.16;4954189;28;20071;-75
2024/01/28 02:53:29;;;;;;;5.53;2.25;;;;;;;4.02;43.00;102792.63;4953878;28;20043;-75
2024/01/28 02:55:59;;;;;;;5.82;2.42;;;;;;;4.00;43.02;102789.06;4952861;28;20502;-76
2024/01/28 02:58:31;;;;;;;5.10;2.35;;;;;;;4.00;42.96;102789.06;4955126;29;20043;-75
2024/01/28 03:00:59;;;;;;;4.65;2.53;;;;;;;3.98;42.91;102790.91;4951625;28;20138;-76
2024/01/28 03:03:28;;;;;;;6.18;2.40;;;;;;;3.99;43.04;102786.41;4933332;29;20528;-77
2024/01/28 03:05:56;;;;;;;5.65;2.25;;;;;;;3.97;42.96;102788.28;4952276;28;20169;-76
2024/01/28 03:08:24;;;;;;;5.43;2.33;;;;;;;3.96;43.00;102781.97;4952596;28;20418;-74
2024/01/28 03:10:52;;;;;;;5.25;2.10;;;;;;;3.97;42.91;102782.88;4952392;28;20051;-75
2024/01/28 03:13:20;;;;;;;6.18;2.10;;;;;;;3.95;42.83;102780.19;4952701;28;20075;-75
2024/01/28 03:15:50;;;;;;;5.22;2.10;;;;;;;3.96;42.93;102775.66;4937834;28;20098;-75
2024/01/28 03:18:18;;;;;;;5.28;1.98;;;;;;;3.93;43.02;102768.50;4952519;28;20051;-76
2024/01/28 03:20:46;;;;;;;5.15;2.28;;;;;;;3.92;43.02;102763.13;4953637;28;20094;-74
2024/01/28 03:23:14;;;;;;;5.10;2.20;;;;;;;3.90;42.93;102760.47;4968110;28;20142;-74
2024/01/28 03:25:43;;;;;;;4.65;2.15;;;;;;;3.89;42.98;102777.69;4952492;28;20039;-76
2024/01/28 03:28:11;;;;;;;4.65;2.13;;;;;;;3.89;43.01;102779.50;4954007;28;20115;-75
2024/01/28 03:30:39;;;;;;;4.72;1.90;;;;;;;3.88;43.07;102775.00;4953655;28;20055;-74
2024/01/28 03:33:08;;;;;;;4.53;1.85;;;;;;;3.88;43.07;102775.00;4952896;28;20062;-75
2024/01/28 03:35:37;;;;;;;5.93;2.40;;;;;;;3.86;43.27;102769.63;4950298;28;20039;-76
2024/01/28 03:38:06;;;;;;;6.15;2.13;;;;;;;3.87;43.13;102771.41;4952903;28;20047;-76
2024/01/28 03:40:34;;;;;;;7.18;1.98;;;;;;;3.86;43.20;102769.63;4968392;28;20039;-76
2024/01/28 03:43:02;;;;;;;4.80;2.20;;;;;;;3.86;43.11;102766.91;4952133;28;20047;-76
2024/01/28 03:45:30;;;;;;;6.65;2.17;;;;;;;3.85;43.05;102764.25;4952019;28;20502;-76
2024/01/28 03:47:58;;;;;;;7.07;2.70;;;;;;;3.85;42.87;102766.97;4967500;28;20043;-76
2024/01/28 03:50:27;;;;;;;6.00;2.40;;;;;;;3.85;43.07;102766.97;4951997;29;20039;-76
2024/01/28 03:52:55;;;;;;;5.00;2.55;;;;;;;3.82;42.94;102757.09;4952640;28;20043;-76
2024/01/28 03:55:24;;;;;;;6.50;2.30;;;;;;;3.81;42.92;102752.63;4953676;29;20039;-76
2024/01/28 03:57:52;;;;;;;3.42;2.13;;;;;;;3.80;43.02;102756.28;4950169;28;20531;-76
2024/01/28 04:00:22;;;;;;;4.88;2.08;;;;;;;3.74;42.73;102757.31;4932380;29;20071;-75
2024/01/28 04:02:50;;;;;;;6.90;2.40;;;;;;;3.74;42.69;102751.00;4943058;28;20110;-75
2024/01/28 04:05:18;;;;;;;6.03;2.22;;;;;;;3.73;42.74;102750.13;4951801;29;20035;-75
2024/01/28 04:07:48;;;;;;;4.43;2.22;;;;;;;3.72;42.74;102753.78;4951989;28;20373;-75
2024/01/28 04:10:16;;;;;;;4.85;2.25;;;;;;;3.71;42.82;102749.31;4958798;28;20047;-76
2024/01/28 04:12:44;;;;;;;4.63;2.10;;;;;;;3.69;42.59;102740.31;4951175;28;20097;-76
2024/01/28 04:15:12;;;;;;;3.88;2.00;;;;;;;3.68;42.81;102740.38;4951243;29;20384;-76
2024/01/28 04:17:40;;;;;;;3.55;1.95;;;;;;;3.68;42.67;102734.94;4951513;28;20107;-76
2024/01/28 04:20:09;;;;;;;5.40;2.25;;;;;;;3.67;42.74;102730.47;4951518;28;20070;-76
2024/01/28 04:22:37;;;;;;;4.45;2.28;;;;;;;3.64;42.75;102720.63;4952629;28;20047;-76
2024/01/28 04:25:07;;;;;;;5.60;2.20;;;;;;;3.66;42.49;102715.16;4933872;29;20071;-75
2024/01/28 04:27:35;;;;;;;5.72;1.90;;;;;;;3.63;42.58;102707.13;4932864;29;20516;-75
2024/01/28 04:30:05;;;;;;;4.30;2.10;;;;;;;3.63;42.45;102709.84;4936181;29;20043;-76
2024/01/28 04:32:33;;;;;;;5.85;1.92;;;;;;;3.62;42.55;102711.66;4967302;28;20160;-76
2024/01/28 04:35:01;;;;;;;4.68;1.88;;;;;;;3.60;42.50;102702.69;4951033;28;20061;-76
2024/01/28 04:37:30;;;;;;;5.55;1.98;;;;;;;3.60;42.51;102693.66;4938684;29;20491;-75
2024/01/28 04:39:58;;;;;;;4.90;2.10;;;;;;;3.60;42.48;102693.66;4933965;29;20143;-75
2024/01/28 04:42:27;;;;;;;4.18;1.80;;;;;;;3.60;42.63;102702.69;4946693;28;20405;-76
2024/01/28 04:44:55;;;;;;;3.53;1.80;;;;;;;3.60;42.64;102704.50;4931987;29;20097;-75
2024/01/28 04:47:23;;;;;;;2.75;1.50;;;;;;;3.59;42.65;102698.19;4931727;29;20044;-74
2024/01/28 04:49:51;;;;;;;4.05;1.60;;;;;;;3.61;42.68;102703.56;4931872;29;20106;-74
2024/01/28 04:52:20;;;;;;;4.95;1.60;;;;;;;3.62;42.64;102705.34;4946244;28;20666;-76
2024/01/28 04:54:48;;;;;;;3.38;1.85;;;;;;;3.63;42.63;102709.84;4952259;28;20043;-76
2024/01/28 04:57:17;;;;;;;3.13;1.80;;;;;;;3.64;42.77;102698.06;4952145;28;20047;-76
2024/01/28 04:59:46;;;;;;;3.17;1.50;;;;;;;3.66;42.86;102704.31;4951076;29;20043;-76
2024/01/28 05:02:14;;;;;;;3.63;1.60;;;;;;;3.65;42.79;102692.59;4950237;28;20637;-75
2024/01/28 05:04:42;;;;;;;4.85;1.65;;;;;;;3.67;42.74;102700.69;4960034;28;20134;-75
2024/01/28 05:07:12;;;;;;;3.47;1.73;;;;;;;3.68;42.80;102699.75;4950969;29;20047;-75
2024/01/28 05:09:40;;;;;;;3.70;2.17;;;;;;;3.69;42.77;102702.41;4951158;28;20655;-75
2024/01/28 05:12:08;;;;;;;5.60;2.15;;;;;;;3.70;42.79;102692.47;4951432;28;20078;-76
2024/01/28 05:14:36;;;;;;;4.07;1.92;;;;;;;3.72;42.71;102701.44;4950715;29;20098;-76
2024/01/28 05:17:06;;;;;;;3.45;1.80;;;;;;;3.73;42.72;102704.09;4965991;28;20062;-76
2024/01/28 05:19:33;;;;;;;3.95;1.60;;;;;;;3.71;42.58;102705.97;4947845;29;20496;-76
2024/01/28 05:22:01;;;;;;;3.95;1.85;;;;;;;3.71;42.34;102695.16;4956886;28;20039;-76
2024/01/28 05:24:29;;;;;;;3.78;1.73;;;;;;;3.71;42.57;102697.84;4952035;28;20054;-76
2024/01/28 05:26:57;;;;;;;5.35;1.80;;;;;;;3.70;42.51;102689.75;4948560;29;20388;-76
2024/01/28 05:29:25;;;;;;;3.72;1.90;;;;;;;3.69;42.49;102686.16;4946502;28;20094;-76
2024/01/28 05:31:53;;;;;;;4.22;2.00;;;;;;;3.69;42.51;102693.41;4950054;28;20043;-75
2024/01/28 05:34:23;;;;;;;3.83;1.95;;;;;;;3.68;42.34;102692.50;4952261;28;20122;-75
2024/01/28 05:36:51;;;;;;;4.30;1.95;;;;;;;3.66;42.43;102688.97;4950166;29;20039;-76
2024/01/28 05:39:19;;;;;;;4.65;2.10;;;;;;;3.65;42.42;102684.47;4950403;28;20608;-76
2024/01/28 05:41:47;;;;;;;5.70;2.35;;;;;;;3.65;42.17;102686.28;4962858;28;20047;-76
2024/01/28 05:44:18;;;;;;;5.00;2.13;;;;;;;3.63;42.52;102690.88;4945411;28;20388;-75
2024/01/28 05:46:45;;;;;;;5.82;2.25;;;;;;;3.62;42.30;102684.59;4951147;28;20126;-76
2024/01/28 05:49:13;;;;;;;4.22;1.92;;;;;;;3.61;42.30;102682.81;4952341;28;20447;-76
2024/01/28 05:51:43;;;;;;;4.38;2.08;;;;;;;3.61;42.23;102681.91;4949951;28;20053;-76
2024/01/28 05:54:11;;;;;;;4.78;2.10;;;;;;;3.60;42.25;102674.72;4949614;28;20053;-76
2024/01/28 05:56:39;;;;;;;3.72;2.05;;;;;;;3.57;42.19;102680.22;4951344;28;20054;-76
2024/01/28 05:59:07;;;;;;;5.15;2.08;;;;;;;3.56;42.00;102682.06;4951755;28;20590;-76
2024/01/28 06:01:35;;;;;;;4.25;2.00;;;;;;;3.55;42.09;102688.41;4950211;29;20146;-76
2024/01/28 06:04:03;;;;;;;4.80;2.05;;;;;;;3.54;42.16;102685.75;4941793;28;20134;-76
2024/01/28 06:06:31;;;;;;;3.88;1.67;;;;;;;3.54;42.12;102691.16;4944849;28;20063;-76
2024/01/28 06:09:01;;;;;;;4.70;2.13;;;;;;;3.54;42.06;102685.75;4950550;28;20039;-76
2024/01/28 06:11:29;;;;;;;3.67;1.73;;;;;;;3.51;42.11;102686.69;4966333;28;20130;-76
2024/01/28 06:13:57;;;;;;;4.20;1.92;;;;;;;3.50;42.02;102674.09;4950928;28;20563;-75
2024/01/28 06:16:25;;;;;;;4.63;1.80;;;;;;;3.50;42.22;102673.22;4951595;28;20049;-74
2024/01/28 06:18:53;;;;;;;4.88;2.20;;;;;;;3.48;42.11;102669.69;4951137;28;20094;-76
2024/01/28 06:21:21;;;;;;;4.22;1.77;;;;;;;3.48;42.00;102678.69;4968935;28;20533;-76
2024/01/28 06:23:48;;;;;;;5.30;2.03;;;;;;;3.47;41.98;102671.50;4960854;28;20054;-76
2024/01/28 06:26:18;;;;;;;5.45;1.75;;;;;;;3.47;42.03;102673.31;4940484;29;20051;-76
2024/01/28 06:28:46;;;;;;;4.05;2.00;;;;;;;3.45;42.08;102670.66;4954613;28;20067;-76
2024/01/28 06:31:15;;;;;;;3.60;1.65;;;;;;;3.45;42.10;102667.94;4969723;28;20051;-76
2024/01/28 06:33:44;;;;;;;4.35;1.90;;;;;;;3.45;42.17;102667.94;4946031;28;20052;-77
2024/01/28 06:36:19;;;;;;;4.55;1.80;;;;;;;3.47;41.44;102665.19;4952384;28;20454;-76
2024/01/28 06:38:47;;;;;;;4.25;1.80;;;;;;;3.44;41.93;102673.41;4954843;28;20047;-76
2024/01/28 06:41:16;;;;;;;2.67;1.70;;;;;;;3.46;42.06;102671.53;4954011;28;20036;-75
2024/01/28 06:43:45;;;;;;;3.35;1.63;;;;;;;3.46;41.83;102663.41;4966437;28;20047;-76
2024/01/28 06:46:15;;;;;;;4.22;1.80;;;;;;;3.45;41.85;102665.22;4939383;29;20316;-76
2024/01/28 06:48:44;;;;;;;6.05;2.15;;;;;;;3.45;41.75;102664.34;4952907;28;20525;-76
2024/01/28 06:51:12;;;;;;;4.30;1.80;;;;;;;3.45;41.76;102669.75;4952344;28;20043;-75
2024/01/28 06:53:40;;;;;;;3.72;2.15;;;;;;;3.45;41.79;102672.47;4952937;28;20130;-75
2024/01/28 06:56:08;;;;;;;3.53;1.63;;;;;;;3.46;41.76;102663.41;4952934;28;20047;-76
2024/01/28 06:58:36;;;;;;;4.55;1.77;;;;;;;3.45;41.96;102654.41;4954865;29;20047;-76
2024/01/28 07:01:06;;;;;;;4.20;1.60;;;;;;;3.47;41.79;102659.78;4952444;29;20058;-75
2024/01/28 07:03:34;;;;;;;3.80;1.70;;;;;;;3.47;41.74;102657.06;4968519;28;20054;-75
2024/01/28 07:06:03;;;;;;;3.03;1.73;;;;;;;3.47;41.84;102665.19;4953884;28;20043;-76
2024/01/28 07:08:31;;;;;;;3.65;1.80;;;;;;;3.47;41.95;102665.19;4960765;28;20047;-74
2024/01/28 07:11:01;;;;;;;3.17;1.88;;;;;;;3.48;41.69;102658.84;4954941;28;20289;-76
2024/01/28 07:13:29;;;;;;;2.92;1.58;;;;;;;3.49;41.59;102674.13;4955239;28;20047;-76
2024/01/28 07:15:57;;;;;;;4.82;1.65;;;;;;;3.48;41.58;102662.44;4958939;28;20138;-75
2024/01/28 07:18:26;;;;;;;5.53;1.90;;;;;;;3.49;41.58;102653.38;4952744;28;20428;-75
2024/01/28 07:20:54;;;;;;;3.70;1.73;;;;;;;3.48;41.83;102654.34;4952373;28;20069;-76
2024/01/28 07:23:22;;;;;;;3.72;1.70;;;;;;;3.49;41.73;102656.06;4947706;28;20637;-75
2024/01/28 07:25:50;;;;;;;4.50;1.88;;;;;;;3.49;41.92;102653.38;4950764;28;20491;-75
2024/01/28 07:28:17;;;;;;;2.92;1.67;;;;;;;3.51;41.92;102656.03;4953756;28;20115;-75
2024/01/28 07:30:45;;;;;;;4.55;1.88;;;;;;;3.49;41.73;102650.66;4963089;28;20086;-76
2024/01/28 07:33:15;;;;;;;3.13;1.90;;;;;;;3.48;41.88;102646.22;4946451;28;20581;-75
2024/01/28 07:35:45;;;;;;;4.63;1.90;;;;;;;3.49;41.61;102641.66;4953104;28;20043;-76
2024/01/28 07:38:14;;;;;;;3.97;2.00;;;;;;;3.48;41.74;102642.63;4967893;28;20051;-76
2024/01/28 07:40:43;;;;;;;3.10;1.73;;;;;;;3.47;41.65;102638.13;4951874;28;20062;-76
2024/01/28 07:43:11;;;;;;;4.65;1.90;;;;;;;3.46;41.64;102637.25;4965239;28;20047;-74
2024/01/28 07:45:41;;;;;;;4.43;1.98;;;;;;;3.47;41.51;102630.00;4963173;28;20099;-75
2024/01/28 07:48:10;;;;;;;4.32;2.10;;;;;;;3.46;41.43;102622.81;4953358;28;20043;-76
2024/01/28 07:50:38;;;;;;;3.70;1.83;;;;;;;3.46;41.45;102622.81;4954253;28;20058;-75
2024/01/28 07:53:07;;;;;;;4.03;1.90;;;;;;;3.47;41.51;102621.88;4951120;28;20162;-76
2024/01/28 07:55:35;;;;;;;6.53;2.00;;;;;;;3.45;41.54;102612.91;4952233;29;20530;-75
2024/01/28 07:58:03;;;;;;;4.68;1.95;;;;;;;3.44;41.54;102614.75;4945234;28;20047;-73
2024/01/28 08:00:32;;;;;;;3.15;1.75;;;;;;;3.46;41.43;102615.59;4951696;28;20147;-74
2024/01/28 08:03:00;;;;;;;4.70;1.80;;;;;;;3.45;41.40;102619.22;4947585;28;20051;-76
2024/01/28 08:05:28;;;;;;;4.88;1.73;;;;;;;3.46;41.64;102615.59;4953013;28;20571;-76
2024/01/28 08:07:56;;;;;;;3.90;1.65;;;;;;;3.46;41.51;102612.88;4950330;28;20051;-76
2024/01/28 08:10:26;;;;;;;3.28;1.63;;;;;;;3.50;41.40;102621.78;4944737;28;20074;-75
2024/01/28 08:12:54;;;;;;;4.70;1.80;;;;;;;3.49;41.34;102611.88;4950438;28;20047;-76
2024/01/28 08:15:22;;;;;;;3.70;1.73;;;;;;;3.50;41.47;102609.13;4951596;29;20043;-76
2024/01/28 08:17:51;;;;;;;4.47;1.73;;;;;;;3.52;41.39;102607.28;4954988;28;20043;-76
2024/01/28 08:20:19;;;;;;;4.03;1.52;;;;;;;3.53;41.45;102605.44;4952344;28;20047;-75
2024/01/28 08:22:47;;;;;;;6.13;1.90;;;;;;;3.54;41.33;102604.53;4952103;28;20047;-75
2024/01/28 08:25:15;;;;;;;3.47;1.63;;;;;;;3.54;41.31;102608.13;4952815;28;20047;-76
2024/01/28 08:27:45;;;;;;;4.97;2.03;;;;;;;3.57;41.25;102615.25;4944170;28;20047;-76
2024/01/28 08:30:15;;;;;;;4.28;1.60;;;;;;;3.56;41.25;102617.09;4950580;28;20047;-75
2024/01/28 08:32:43;;;;;;;3.95;1.80;;;;;;;3.58;41.29;102612.50;4960963;28;20046;-77
2024/01/28 08:35:11;;;;;;;4.03;1.90;;;;;;;3.61;41.20;102603.41;4954196;28;20581;-77
2024/01/28 08:37:39;;;;;;;4.03;2.10;;;;;;;3.63;41.33;102604.25;4975322;28;20062;-77
2024/01/28 08:40:08;;;;;;;5.63;2.22;;;;;;;3.66;41.46;102591.47;4953839;29;20054;-77
2024/01/28 08:42:36;;;;;;;3.60;1.95;;;;;;;3.67;41.24;102597.78;4950717;28;20039;-76
2024/01/28 08:45:07;;;;;;;3.42;1.73;;;;;;;3.72;40.94;102595.84;4952840;28;20039;-76
2024/01/28 08:47:35;;;;;;;3.30;1.63;;;;;;;3.71;41.15;102602.19;4952187;29;20081;-76
2024/01/28 08:50:03;;;;;;;3.60;1.70;;;;;;;3.72;41.23;102599.44;4945955;28;20534;-76
2024/01/28 08:52:31;;;;;;;4.25;2.00;;;;;;;3.77;41.26;102592.03;4958739;28;20125;-77
2024/01/28 08:54:59;;;;;;;6.10;2.00;;;;;;;3.80;41.16;102598.31;4953909;28;20051;-77
2024/01/28 08:57:28;;;;;;;3.70;1.90;;;;;;;3.82;41.21;102586.47;4951845;28;20423;-77
2024/01/28 08:59:56;;;;;;;4.35;1.77;;;;;;;3.85;41.24;102588.19;4952120;28;20048;-77
2024/01/28 09:02:25;;;;;;;4.38;2.00;;;;;;;3.87;41.21;102581.81;4958071;28;20171;-77
2024/01/28 09:04:53;;;;;;;6.00;1.80;;;;;;;3.92;41.44;102585.25;4950747;28;20053;-77
2024/01/28 09:07:22;;;;;;;3.92;1.73;;;;;;;3.97;41.49;102582.41;4954302;28;20078;-77
2024/01/28 09:09:50;;;;;;;4.55;1.92;;;;;;;4.01;41.45;102593.06;4954115;28;20138;-76
2024/01/28 09:12:18;;;;;;;3.05;1.70;;;;;;;4.09;41.63;102584.69;4952780;28;20047;-77
2024/01/28 09:14:46;;;;;;;3.90;1.92;;;;;;;4.14;41.68;102585.44;4952106;28;20051;-78
2024/01/28 09:17:14;;;;;;;5.88;2.00;;;;;;;4.20;41.57;102582.53;4952587;28;20048;-77
2024/01/28 09:19:46;;;;;;;3.58;1.70;;;;;;;4.29;41.33;102584.94;4962530;28;20051;-76
2024/01/28 09:22:14;;;;;;;3.65;1.60;;;;;;;4.35;41.55;102578.41;4965991;28;20044;-77
2024/01/28 09:24:42;;;;;;;4.13;1.63;;;;;;;4.45;41.51;102585.28;4969106;28;20054;-77
2024/01/28 09:27:11;;;;;;;4.32;1.75;;;;;;;4.52;41.55;102576.00;4952611;28;20062;-76
2024/01/28 09:29:39;;;;;;;5.63;2.08;;;;;;;4.61;41.55;102582.91;4952940;28;20450;-77
2024/01/28 09:32:08;;;;;;;4.50;1.85;;;;;;;4.69;41.36;102581.72;4966978;28;20070;-77
2024/01/28 09:34:36;;;;;;;4.10;1.80;;;;;;;4.78;41.49;102575.06;4969562;28;20043;-77
2024/01/28 09:37:10;;;;;;;4.88;2.00;;;;;;;4.87;41.06;102581.06;4968182;28;20062;-76
2024/01/28 09:39:38;;;;;;;3.38;1.77;;;;;;;4.97;41.63;102576.16;4954544;28;20523;-79
2024/01/28 09:42:12;;;;;;;4.00;1.95;;;;;;;5.08;40.68;102589.31;4949954;28;20435;-76
2024/01/28 09:44:40;;;;;;;5.13;2.00;;;;;;;5.15;41.34;102596.28;4960939;28;20495;-77
2024/01/28 09:47:09;;;;;;;5.00;2.08;;;;;;;5.21;40.77;102577.13;4959909;28;20157;-76
2024/01/28 09:49:40;;;;;;;4.93;2.15;;;;;;;5.32;40.89;102577.56;4966264;28;20289;-76
2024/01/28 09:52:14;;;;;;;6.03;2.10;;;;;;;5.43;39.97;102574.44;4958412;28;20063;-74
2024/01/28 09:54:44;;;;;;;4.65;1.80;;;;;;;5.50;41.02;102584.13;4963828;28;20102;-75
2024/01/28 09:57:13;;;;;;;4.25;1.95;;;;;;;5.60;40.97;102580.13;4952930;28;20130;-76
2024/01/28 09:59:41;;;;;;;4.45;1.83;;;;;;;5.66;40.93;102578.03;4951149;28;20090;-75
2024/01/28 10:02:10;;;;;;;4.07;1.83;;;;;;;5.77;40.79;102574.91;4950762;28;20051;-76
2024/01/28 10:04:39;;;;;;;4.28;1.90;;;;;;;5.86;40.75;102571.81;4951319;28;20047;-76
2024/01/28 10:07:15;;;;;;;5.72;2.10;;;;;;;5.95;40.26;102568.69;4948267;28;20546;-74
2024/01/28 10:09:45;;;;;;;4.10;2.22;;;;;;;6.03;40.22;102566.56;4953735;28;20179;-74
2024/01/28 10:12:13;;;;;;;3.78;1.90;;;;;;;6.08;40.41;102574.53;4950282;28;20131;-76
2024/01/28 10:14:49;;;;;;;3.65;1.85;;;;;;;6.17;40.12;102568.69;4950370;29;20043;-78
2024/01/28 10:17:17;;;;;;;3.35;1.80;;;;;;;6.25;40.10;102580.13;4964048;28;20054;-76
2024/01/28 10:19:45;;;;;;;3.22;1.80;;;;;;;6.33;40.17;102571.66;4971468;28;20050;-74
2024/01/28 10:22:13;;;;;;;3.70;2.08;;;;;;;6.41;40.13;102572.22;4952038;28;20114;-76
2024/01/28 10:24:45;;;;;;;4.45;2.00;;;;;;;6.50;39.89;102568.22;4949903;28;20051;-76
2024/01/28 10:27:13;;;;;;;3.08;1.77;;;;;;;6.55;39.69;102563.44;4951121;28;20039;-76
2024/01/28 10:29:43;;;;;;;3.20;1.95;;;;;;;6.62;39.80;102545.88;4956412;28;20363;-76
2024/01/28 10:32:11;;;;;;;6.35;2.10;;;;;;;6.69;39.80;102551.03;4963553;28;20102;-76
2024/01/28 10:34:39;;;;;;;4.95;1.90;;;;;;;6.76;39.63;102559.81;4951315;28;20055;-74
2024/01/28 10:37:12;;;;;;;4.35;2.15;;;;;;;6.85;38.90;102551.25;4966155;28;20051;-74
2024/01/28 10:39:43;;;;;;;4.07;2.00;;;;;;;6.88;39.38;102558.38;4960167;28;20043;-73
2024/01/28 10:42:18;;;;;;;4.60;1.98;;;;;;;6.97;38.84;102552.50;4951448;28;20039;-74
2024/01/28 10:44:48;;;;;;;3.00;1.70;;;;;;;7.04;39.30;102543.09;4951357;28;20054;-75
2024/01/28 10:47:18;;;;;;;3.85;2.00;;;;;;;7.11;39.21;102539.13;4947124;28;20530;-74
2024/01/28 10:49:51;;;;;;;3.78;1.92;;;;;;;7.17;38.65;102534.31;4951597;28;20129;-72
2024/01/28 10:52:21;;;;;;;5.03;2.00;;;;;;;7.22;39.06;102536.81;4949386;28;20043;-73
2024/01/28 10:54:51;;;;;;;4.60;1.92;;;;;;;7.29;38.87;102535.56;5034774;23;20042;-74
2024/01/28 10:57:22;;;;;;;4.55;2.00;;;;;;;7.36;38.45;102530.69;4965077;28;20054;-72
2024/01/28 10:59:52;;;;;;;4.07;2.05;;;;;;;7.39;38.57;102526.00;4972711;28;20078;-72
2024/01/28 11:02:21;;;;;;;4.32;2.00;;;;;;;7.44;38.44;102517.59;4971584;28;20652;-72
2024/01/28 11:04:49;;;;;;;3.78;1.83;;;;;;;7.48;38.71;102521.97;4971640;28;20040;-73
2024/01/28 11:07:19;;;;;;;5.50;1.90;;;;;;;7.53;38.50;102520.75;4972760;28;20112;-72
2024/01/28 11:09:47;;;;;;;4.50;1.90;;;;;;;7.58;38.45;102512.38;4966129;28;20074;-74
2024/01/28 11:12:16;;;;;;;4.18;2.03;;;;;;;7.63;38.46;102514.88;4964119;28;20035;-73
2024/01/28 11:14:46;;;;;;;3.63;1.90;;;;;;;7.69;38.27;102514.56;4968377;28;20043;-74
2024/01/28 11:17:14;;;;;;;3.40;2.00;;;;;;;7.73;38.54;102517.06;4967710;28;20046;-75
2024/01/28 11:19:42;;;;;;;3.83;1.67;;;;;;;7.78;38.47;102505.94;4972818;28;20571;-74
2024/01/28 11:22:15;;;;;;;4.45;2.05;;;;;;;7.83;37.52;102499.31;4971222;28;20056;-73
2024/01/28 11:24:52;;;;;;;3.08;1.90;;;;;;;7.87;36.25;102500.03;4970727;28;20498;-71
2024/01/28 11:27:21;;;;;;;3.13;1.70;;;;;;;7.91;38.22;102499.81;4968964;28;20054;-74
2024/01/28 11:29:57;;;;;;;4.90;1.90;;;;;;;7.98;36.55;102496.75;4953384;28;20556;-72
2024/01/28 11:32:33;;;;;;;4.00;2.03;;;;;;;8.02;36.49;102493.78;4954011;28;20142;-71
2024/01/28 11:35:01;;;;;;;3.97;2.00;;;;;;;8.04;37.99;102491.00;4967897;28;20082;-74
2024/01/28 11:37:31;;;;;;;3.65;1.88;;;;;;;8.08;38.06;102492.63;4968298;28;20191;-73
2024/01/28 11:40:06;;;;;;;4.50;1.60;;;;;;;8.15;37.26;102486.78;4968328;28;20046;-64